createdAt,value
2017-11-10T00:00:01.924Z,9.27
2017-11-10T00:01:01.186Z,9.21
2017-11-10T00:02:01.103Z,9.20
2017-11-10T00:03:01.007Z,9.27
2017-11-10T00:04:00.925Z,9.10
2017-11-10T00:05:00.838Z,9.02
2017-11-10T00:06:00.750Z,9.09
2017-11-10T00:07:00.661Z,9.12
2017-11-10T00:08:00.577Z,9.10
2017-11-10T00:09:00.493Z,8.97
2017-11-10T00:10:00.399Z,8.78
2017-11-10T00:11:00.316Z,8.96
2017-11-10T00:12:00.230Z,8.83
2017-11-10T00:13:00.150Z,8.69
2017-11-10T00:14:00.078Z,8.87
2017-11-10T00:14:59.970Z,8.99
2017-11-10T00:15:59.885Z,8.93
2017-11-10T00:16:59.806Z,9.04
2017-11-10T00:17:59.708Z,9.12
2017-11-10T00:18:59.621Z,9.01
2017-11-10T00:19:59.530Z,8.81
2017-11-10T00:20:59.443Z,8.73
2017-11-10T00:21:59.357Z,8.97
2017-11-10T00:22:59.271Z,8.84
2017-11-10T00:23:59.183Z,8.68
2017-11-10T00:24:59.099Z,8.88
2017-11-10T00:25:59.018Z,8.93
2017-11-10T00:26:58.929Z,9.09
2017-11-10T00:27:58.837Z,8.93
2017-11-10T00:28:58.755Z,8.94
2017-11-10T00:29:58.661Z,9.02
2017-11-10T00:30:58.585Z,8.99
2017-11-10T00:31:58.489Z,8.88
2017-11-10T00:32:58.399Z,8.96
2017-11-10T00:33:58.329Z,8.84
2017-11-10T00:34:58.222Z,8.69
2017-11-10T00:35:58.143Z,8.87
2017-11-10T00:36:58.054Z,8.81
2017-11-10T00:37:57.962Z,9.01
2017-11-10T00:38:57.878Z,8.88
2017-11-10T00:39:57.784Z,8.93
2017-11-10T00:40:57.701Z,8.79
2017-11-10T00:41:57.612Z,8.84
2017-11-10T00:42:57.537Z,8.87
2017-11-10T00:43:57.442Z,8.87
2017-11-10T00:44:57.356Z,8.86
2017-11-10T00:45:57.269Z,8.97
2017-11-10T00:46:57.181Z,9.02
2017-11-10T00:47:57.091Z,9.04
2017-11-10T00:48:57.003Z,9.21
2017-11-10T00:49:56.922Z,9.05
2017-11-10T00:50:56.836Z,8.86
2017-11-10T00:51:56.741Z,8.86
2017-11-10T00:52:56.669Z,8.97
2017-11-10T00:53:56.568Z,8.88
2017-11-10T00:54:56.482Z,8.94
2017-11-10T00:55:56.400Z,8.78
2017-11-10T00:56:56.317Z,8.79
2017-11-10T00:57:56.230Z,8.94
2017-11-10T00:58:56.133Z,8.96
2017-11-10T00:59:56.053Z,8.86
2017-11-10T01:00:55.960Z,8.87
2017-11-10T01:01:55.875Z,8.75
2017-11-10T01:02:55.784Z,8.78
2017-11-10T01:03:55.699Z,8.88
2017-11-10T01:04:55.626Z,8.72
2017-11-10T01:05:55.523Z,8.99
2017-11-10T01:06:55.438Z,8.97
2017-11-10T01:07:55.351Z,8.97
2017-11-10T01:08:55.266Z,8.91
2017-11-10T01:09:55.173Z,8.58
2017-11-10T01:10:55.113Z,8.69
2017-11-10T01:11:55.002Z,8.65
2017-11-10T01:12:54.916Z,8.58
2017-11-10T01:13:54.830Z,8.47
2017-11-10T01:14:54.743Z,8.57
2017-11-10T01:15:54.653Z,8.63
2017-11-10T01:16:54.580Z,8.51
2017-11-10T01:17:54.477Z,8.32
2017-11-10T01:18:54.387Z,8.48
2017-11-10T01:19:54.331Z,8.60
2017-11-10T01:20:54.213Z,8.58
2017-11-10T01:21:54.129Z,8.58
2017-11-10T01:22:54.040Z,8.33
2017-11-10T01:23:53.948Z,8.45
2017-11-10T01:24:53.867Z,8.47
2017-11-10T01:25:53.787Z,8.65
2017-11-10T01:26:53.687Z,8.75
2017-11-10T01:27:53.601Z,8.79
2017-11-10T01:28:53.516Z,8.81
2017-11-10T01:29:53.428Z,9.04
2017-11-10T01:30:53.341Z,8.94
2017-11-10T01:31:53.251Z,8.83
2017-11-10T01:32:53.175Z,8.88
2017-11-10T01:33:53.082Z,8.58
2017-11-10T01:34:52.990Z,8.50
2017-11-10T01:35:52.904Z,8.68
2017-11-10T01:36:52.818Z,8.81
2017-11-10T01:37:52.733Z,8.83
2017-11-10T01:38:52.647Z,8.83
2017-11-10T01:39:52.560Z,8.84
2017-11-10T01:40:52.470Z,8.81
2017-11-10T01:41:52.387Z,8.91
2017-11-10T01:42:52.296Z,8.97
2017-11-10T01:43:52.209Z,8.84
2017-11-10T01:44:52.121Z,8.86
2017-11-10T01:45:52.032Z,8.88
2017-11-10T01:46:51.951Z,8.84
2017-11-10T01:47:51.860Z,8.93
2017-11-10T01:48:51.776Z,8.96
2017-11-10T01:49:51.689Z,9.04
2017-11-10T01:50:51.604Z,9.09
2017-11-10T01:51:51.517Z,9.12
2017-11-10T01:52:51.424Z,9.10
2017-11-10T01:53:51.340Z,9.06
2017-11-10T01:54:51.266Z,9.04
2017-11-10T01:55:51.182Z,9.10
2017-11-10T01:56:51.093Z,9.12
2017-11-10T01:57:50.996Z,9.06
2017-11-10T01:58:50.932Z,9.10
2017-11-10T01:59:50.825Z,9.09
2017-11-10T02:00:50.736Z,9.10
2017-11-10T02:01:50.653Z,8.99
2017-11-10T02:02:50.561Z,8.94
2017-11-10T02:03:50.473Z,9.06
2017-11-10T02:04:50.398Z,9.10
2017-11-10T02:05:50.310Z,8.99
2017-11-10T02:06:50.228Z,8.81
2017-11-10T02:07:50.148Z,9.01
2017-11-10T02:08:50.047Z,9.09
2017-11-10T02:09:49.957Z,9.09
2017-11-10T02:10:49.874Z,9.09
2017-11-10T02:11:49.789Z,9.13
2017-11-10T02:12:49.712Z,9.06
2017-11-10T02:13:49.610Z,8.83
2017-11-10T02:14:49.528Z,9.05
2017-11-10T02:15:49.444Z,9.24
2017-11-10T02:16:49.358Z,9.21
2017-11-10T02:17:49.269Z,9.18
2017-11-10T02:18:49.181Z,9.15
2017-11-10T02:19:49.101Z,9.09
2017-11-10T02:20:49.008Z,8.66
2017-11-10T02:21:48.926Z,8.69
2017-11-10T02:22:48.838Z,8.71
2017-11-10T02:23:48.755Z,8.79
2017-11-10T02:24:48.668Z,8.79
2017-11-10T02:25:48.571Z,8.97
2017-11-10T02:26:48.490Z,8.63
2017-11-10T02:27:48.400Z,8.72
2017-11-10T02:28:48.317Z,8.84
2017-11-10T02:29:48.260Z,8.96
2017-11-10T02:30:48.144Z,8.99
2017-11-10T02:31:48.064Z,9.10
2017-11-10T02:32:47.965Z,9.15
2017-11-10T02:33:47.888Z,9.09
2017-11-10T02:34:47.794Z,9.10
2017-11-10T02:35:47.720Z,8.93
2017-11-10T02:36:47.621Z,8.78
2017-11-10T02:37:47.540Z,8.83
2017-11-10T02:38:47.454Z,8.75
2017-11-10T02:39:47.373Z,8.62
2017-11-10T02:40:47.286Z,8.60
2017-11-10T02:41:47.201Z,8.81
2017-11-10T02:42:47.112Z,8.65
2017-11-10T02:43:47.019Z,8.83
2017-11-10T02:44:46.923Z,8.90
2017-11-10T02:45:46.843Z,8.93
2017-11-10T02:46:46.755Z,9.02
2017-11-10T02:47:46.665Z,9.04
2017-11-10T02:48:46.578Z,9.02
2017-11-10T02:49:46.495Z,8.96
2017-11-10T02:50:46.406Z,8.99
2017-11-10T02:51:46.338Z,8.99
2017-11-10T02:52:46.236Z,8.90
2017-11-10T02:53:46.162Z,8.81
2017-11-10T02:54:46.065Z,8.68
2017-11-10T02:55:45.975Z,8.81
2017-11-10T02:56:45.886Z,8.88
2017-11-10T02:57:45.802Z,8.87
2017-11-10T02:58:45.717Z,8.97
2017-11-10T02:59:45.628Z,8.96
2017-11-10T03:00:45.545Z,8.99
2017-11-10T03:01:45.457Z,8.79
2017-11-10T03:02:45.376Z,8.93
2017-11-10T03:03:45.283Z,8.93
2017-11-10T03:04:45.195Z,8.97
2017-11-10T03:05:45.108Z,8.86
2017-11-10T03:06:45.022Z,8.71
2017-11-10T03:07:44.931Z,8.86
2017-11-10T03:08:44.850Z,8.84
2017-11-10T03:09:44.769Z,8.62
2017-11-10T03:10:44.673Z,8.65
2017-11-10T03:11:44.585Z,8.71
2017-11-10T03:12:44.500Z,8.90
2017-11-10T03:13:44.422Z,8.58
2017-11-10T03:14:44.348Z,8.57
2017-11-10T03:15:44.242Z,8.55
2017-11-10T03:16:44.156Z,8.68
2017-11-10T03:17:44.063Z,8.66
2017-11-10T03:18:43.986Z,8.69
2017-11-10T03:19:43.900Z,8.71
2017-11-10T03:20:43.813Z,8.65
2017-11-10T03:21:43.731Z,8.72
2017-11-10T03:22:43.633Z,8.79
2017-11-10T03:23:43.539Z,8.73
2017-11-10T03:24:43.453Z,8.72
2017-11-10T03:25:43.368Z,8.79
2017-11-10T03:26:43.281Z,8.84
2017-11-10T03:27:43.197Z,8.83
2017-11-10T03:28:43.107Z,8.51
2017-11-10T03:29:43.027Z,8.58
2017-11-10T03:30:42.936Z,8.63
2017-11-10T03:31:42.853Z,8.55
2017-11-10T03:32:42.764Z,8.53
2017-11-10T03:33:42.679Z,8.63
2017-11-10T03:34:42.600Z,8.50
2017-11-10T03:35:42.499Z,8.53
2017-11-10T03:36:42.418Z,8.58
2017-11-10T03:37:42.333Z,8.66
2017-11-10T03:38:42.245Z,8.72
2017-11-10T03:39:42.171Z,8.54
2017-11-10T03:40:42.069Z,8.53
2017-11-10T03:41:41.981Z,8.58
2017-11-10T03:42:41.890Z,8.48
2017-11-10T03:43:41.805Z,8.48
2017-11-10T03:44:41.714Z,8.30
2017-11-10T03:45:41.628Z,8.45
2017-11-10T03:46:41.550Z,8.48
2017-11-10T03:47:41.458Z,8.51
2017-11-10T03:48:41.365Z,8.58
2017-11-10T03:49:41.278Z,8.51
2017-11-10T03:50:41.191Z,8.69
2017-11-10T03:51:41.112Z,8.51
2017-11-10T03:52:41.015Z,8.40
2017-11-10T03:53:40.939Z,8.57
2017-11-10T03:54:40.841Z,8.69
2017-11-10T03:55:40.756Z,8.60
2017-11-10T03:56:40.670Z,8.60
2017-11-10T03:57:40.590Z,8.57
2017-11-10T03:58:40.495Z,8.48
2017-11-10T03:59:40.405Z,8.47
2017-11-10T04:00:40.323Z,8.51
2017-11-10T04:01:40.233Z,8.48
2017-11-10T04:02:40.158Z,8.39
2017-11-10T04:03:40.062Z,8.51
2017-11-10T04:04:39.973Z,8.55
2017-11-10T04:05:39.885Z,8.55
2017-11-10T04:06:39.803Z,8.66
2017-11-10T04:07:39.712Z,8.63
2017-11-10T04:08:39.628Z,8.57
2017-11-10T04:09:39.538Z,8.55
2017-11-10T04:10:39.457Z,8.69
2017-11-10T04:11:39.368Z,8.58
2017-11-10T04:12:39.277Z,8.58
2017-11-10T04:13:39.191Z,8.55
2017-11-10T04:14:39.116Z,8.50
2017-11-10T04:15:39.012Z,8.51
2017-11-10T04:16:38.930Z,8.58
2017-11-10T04:17:38.836Z,8.58
2017-11-10T04:18:38.754Z,8.68
2017-11-10T04:19:38.707Z,8.62
2017-11-10T04:20:38.580Z,8.50
2017-11-10T04:21:38.492Z,8.62
2017-11-10T04:22:38.408Z,8.63
2017-11-10T04:23:38.320Z,8.63
2017-11-10T04:24:38.237Z,8.71
2017-11-10T04:25:38.143Z,8.68
2017-11-10T04:26:38.053Z,8.60
2017-11-10T04:27:37.970Z,8.51
2017-11-10T04:28:37.919Z,8.62
2017-11-10T04:29:37.806Z,8.68
2017-11-10T04:30:37.713Z,8.72
2017-11-10T04:31:37.648Z,8.68
2017-11-10T04:32:37.536Z,8.68
2017-11-10T04:33:37.452Z,8.55
2017-11-10T04:34:37.362Z,8.62
2017-11-10T04:35:37.281Z,8.62
2017-11-10T04:36:37.192Z,8.57
2017-11-10T04:37:37.098Z,8.54
2017-11-10T04:38:37.023Z,8.53
2017-11-10T04:39:36.941Z,8.58
2017-11-10T04:40:36.850Z,8.65
2017-11-10T04:41:36.764Z,8.68
2017-11-10T04:42:36.672Z,8.62
2017-11-10T04:43:36.585Z,8.54
2017-11-10T04:44:36.500Z,8.66
2017-11-10T04:45:36.406Z,8.51
2017-11-10T04:46:36.322Z,8.66
2017-11-10T04:47:36.261Z,8.48
2017-11-10T04:48:36.158Z,8.51
2017-11-10T04:49:36.057Z,8.50
2017-11-10T04:50:35.977Z,8.42
2017-11-10T04:51:36.087Z,8.53
2017-11-10T04:52:35.806Z,8.62
2017-11-10T04:53:35.714Z,8.57
2017-11-10T04:54:35.632Z,8.30
2017-11-10T04:55:35.545Z,8.29
2017-11-10T04:56:35.493Z,8.48
2017-11-10T04:57:35.366Z,8.44
2017-11-10T04:58:35.278Z,8.36
2017-11-10T04:59:35.197Z,8.37
2017-11-10T05:00:35.109Z,8.39
2017-11-10T05:01:35.020Z,8.37
2017-11-10T05:02:34.948Z,8.26
2017-11-10T05:03:34.843Z,8.17
2017-11-10T05:04:34.759Z,8.22
2017-11-10T05:05:34.674Z,8.07
2017-11-10T05:06:34.589Z,8.22
2017-11-10T05:07:34.496Z,8.14
2017-11-10T05:08:34.405Z,8.15
2017-11-10T05:09:34.325Z,8.11
2017-11-10T05:10:34.234Z,8.00
2017-11-10T05:11:34.148Z,8.12
2017-11-10T05:12:34.057Z,8.15
2017-11-10T05:13:33.971Z,8.17
2017-11-10T05:14:33.888Z,8.00
2017-11-10T05:15:33.811Z,8.02
2017-11-10T05:16:33.712Z,8.11
2017-11-10T05:17:33.622Z,8.12
2017-11-10T05:18:33.533Z,7.92
2017-11-10T05:19:33.442Z,8.03
2017-11-10T05:20:33.362Z,7.63
2017-11-10T05:21:33.272Z,7.96
2017-11-10T05:22:33.183Z,7.94
2017-11-10T05:23:33.097Z,7.96
2017-11-10T05:24:33.006Z,8.12
2017-11-10T05:25:32.923Z,8.02
2017-11-10T05:26:32.826Z,8.02
2017-11-10T05:27:32.745Z,8.15
2017-11-10T05:28:32.657Z,7.84
2017-11-10T05:29:32.567Z,7.87
2017-11-10T05:30:32.480Z,8.04
2017-11-10T05:31:32.397Z,8.15
2017-11-10T05:32:32.301Z,8.18
2017-11-10T05:33:32.220Z,8.26
2017-11-10T05:34:32.130Z,8.02
2017-11-10T05:35:32.044Z,7.93
2017-11-10T05:36:31.955Z,7.96
2017-11-10T05:37:31.860Z,8.00
2017-11-10T05:38:31.773Z,8.04
2017-11-10T05:39:31.692Z,8.02
2017-11-10T05:40:31.598Z,7.85
2017-11-10T05:41:31.511Z,7.63
2017-11-10T05:42:31.420Z,7.94
2017-11-10T05:43:31.367Z,8.12
2017-11-10T05:44:31.246Z,7.93
2017-11-10T05:45:31.163Z,7.90
2017-11-10T05:46:31.074Z,7.81
2017-11-10T05:47:30.984Z,7.66
2017-11-10T05:48:30.899Z,7.53
2017-11-10T05:49:30.806Z,7.62
2017-11-10T05:50:30.722Z,7.82
2017-11-10T05:51:30.632Z,7.87
2017-11-10T05:52:30.544Z,7.85
2017-11-10T05:53:30.452Z,7.66
2017-11-10T05:54:30.362Z,7.89
2017-11-10T05:55:30.277Z,8.08
2017-11-10T05:56:30.208Z,7.97
2017-11-10T05:57:30.108Z,8.07
2017-11-10T05:58:30.017Z,8.15
2017-11-10T05:59:29.934Z,8.21
2017-11-10T06:00:29.842Z,8.20
2017-11-10T06:01:29.756Z,8.17
2017-11-10T06:02:29.668Z,8.11
2017-11-10T06:03:29.571Z,8.11
2017-11-10T06:04:29.487Z,8.14
2017-11-10T06:05:29.399Z,8.22
2017-11-10T06:06:29.308Z,8.17
2017-11-10T06:07:29.224Z,7.93
2017-11-10T06:08:29.135Z,8.07
2017-11-10T06:09:29.051Z,8.14
2017-11-10T06:10:28.956Z,8.04
2017-11-10T06:11:28.881Z,8.02
2017-11-10T06:12:28.788Z,8.10
2017-11-10T06:13:28.697Z,7.85
2017-11-10T06:14:28.617Z,7.99
2017-11-10T06:15:28.522Z,8.14
2017-11-10T06:16:28.438Z,8.18
2017-11-10T06:17:28.339Z,8.14
2017-11-10T06:18:28.256Z,8.22
2017-11-10T06:19:28.166Z,8.20
2017-11-10T06:20:28.096Z,8.12
2017-11-10T06:21:27.988Z,8.15
2017-11-10T06:22:27.906Z,8.11
2017-11-10T06:23:27.821Z,8.25
2017-11-10T06:24:27.727Z,8.20
2017-11-10T06:25:27.664Z,8.17
2017-11-10T06:26:27.552Z,8.11
2017-11-10T06:27:27.465Z,8.17
2017-11-10T06:28:27.380Z,8.22
2017-11-10T06:29:27.284Z,8.21
2017-11-10T06:30:27.201Z,8.15
2017-11-10T06:31:27.108Z,8.08
2017-11-10T06:32:27.033Z,8.14
2017-11-10T06:33:26.935Z,8.21
2017-11-10T06:34:26.852Z,8.15
2017-11-10T06:35:26.764Z,8.03
2017-11-10T06:36:26.689Z,8.18
2017-11-10T06:37:26.585Z,8.17
2017-11-10T06:38:26.494Z,8.20
2017-11-10T06:39:26.415Z,8.22
2017-11-10T06:40:26.333Z,8.20
2017-11-10T06:41:26.236Z,7.92
2017-11-10T06:42:26.144Z,7.97
2017-11-10T06:43:26.060Z,8.20
2017-11-10T06:44:25.976Z,8.29
2017-11-10T06:45:25.881Z,8.28
2017-11-10T06:46:25.795Z,8.25
2017-11-10T06:47:25.710Z,8.22
2017-11-10T06:48:25.617Z,8.36
2017-11-10T06:49:25.541Z,8.37
2017-11-10T06:50:25.446Z,8.36
2017-11-10T06:51:25.379Z,8.37
2017-11-10T06:52:25.267Z,8.17
2017-11-10T06:53:25.184Z,8.32
2017-11-10T06:54:25.101Z,8.22
2017-11-10T06:55:25.011Z,8.21
2017-11-10T06:56:24.921Z,8.12
2017-11-10T06:57:24.828Z,8.22
2017-11-10T06:58:24.749Z,8.17
2017-11-10T06:59:24.665Z,8.21
2017-11-10T07:00:24.573Z,8.28
2017-11-10T07:01:24.480Z,8.22
2017-11-10T07:02:24.392Z,8.22
2017-11-10T07:03:24.302Z,8.30
2017-11-10T07:04:24.231Z,8.29
2017-11-10T07:05:24.141Z,8.28
2017-11-10T07:06:24.060Z,8.17
2017-11-10T07:07:23.954Z,8.32
2017-11-10T07:08:23.868Z,8.29
2017-11-10T07:09:23.781Z,8.29
2017-11-10T07:10:23.687Z,8.18
2017-11-10T07:11:23.602Z,8.10
2017-11-10T07:12:23.518Z,8.20
2017-11-10T07:13:23.435Z,8.22
2017-11-10T07:14:23.343Z,8.25
2017-11-10T07:15:23.252Z,8.29
2017-11-10T07:16:23.165Z,8.22
2017-11-10T07:17:23.077Z,8.39
2017-11-10T07:18:23.055Z,8.30
2017-11-10T07:19:22.924Z,8.30
2017-11-10T07:20:22.810Z,8.42
2017-11-10T07:21:22.750Z,8.40
2017-11-10T07:22:22.637Z,8.39
2017-11-10T07:23:22.553Z,8.21
2017-11-10T07:24:22.464Z,8.25
2017-11-10T07:25:22.375Z,8.20
2017-11-10T07:26:22.284Z,8.28
2017-11-10T07:27:22.208Z,8.20
2017-11-10T07:28:22.113Z,8.28
2017-11-10T07:29:22.020Z,8.25
2017-11-10T07:30:21.944Z,8.22
2017-11-10T07:31:21.859Z,8.07
2017-11-10T07:32:21.766Z,8.11
2017-11-10T07:33:21.671Z,8.15
2017-11-10T07:34:21.581Z,8.26
2017-11-10T07:35:21.496Z,8.10
2017-11-10T07:36:21.409Z,8.22
2017-11-10T07:37:21.318Z,8.17
2017-11-10T07:38:21.229Z,8.22
2017-11-10T07:39:21.158Z,8.20
2017-11-10T07:40:21.057Z,8.26
2017-11-10T07:41:20.957Z,8.30
2017-11-10T07:42:20.881Z,8.33
2017-11-10T07:43:20.805Z,8.29
2017-11-10T07:44:20.699Z,8.28
2017-11-10T07:45:20.613Z,8.17
2017-11-10T07:46:20.523Z,8.32
2017-11-10T07:47:20.435Z,8.47
2017-11-10T07:48:20.346Z,8.44
2017-11-10T07:49:20.256Z,8.42
2017-11-10T07:50:20.171Z,8.29
2017-11-10T07:51:20.081Z,8.29
2017-11-10T07:52:19.998Z,8.33
2017-11-10T07:53:19.909Z,8.36
2017-11-10T07:54:19.816Z,8.39
2017-11-10T07:55:19.732Z,8.36
2017-11-10T07:56:19.643Z,8.36
2017-11-10T07:57:19.553Z,8.35
2017-11-10T07:58:19.468Z,8.44
2017-11-10T07:59:19.379Z,8.50
2017-11-10T08:00:19.290Z,8.47
2017-11-10T08:01:19.202Z,8.35
2017-11-10T08:02:19.115Z,8.47
2017-11-10T08:03:19.026Z,8.22
2017-11-10T08:04:18.938Z,8.39
2017-11-10T08:05:18.850Z,8.37
2017-11-10T08:06:18.761Z,8.32
2017-11-10T08:07:18.677Z,8.51
2017-11-10T08:08:18.586Z,8.39
2017-11-10T08:09:18.498Z,8.32
2017-11-10T08:10:18.411Z,8.39
2017-11-10T08:11:18.323Z,8.42
2017-11-10T08:12:18.232Z,8.37
2017-11-10T08:13:18.145Z,8.58
2017-11-10T08:14:18.056Z,8.60
2017-11-10T08:15:17.988Z,8.50
2017-11-10T08:16:17.883Z,8.51
2017-11-10T08:17:17.812Z,8.39
2017-11-10T08:18:17.701Z,8.36
2017-11-10T08:19:17.614Z,8.35
2017-11-10T08:20:17.530Z,8.37
2017-11-10T08:21:17.437Z,8.40
2017-11-10T08:22:17.349Z,8.39
2017-11-10T08:23:17.274Z,8.40
2017-11-10T08:24:17.175Z,8.50
2017-11-10T08:25:17.093Z,8.55
2017-11-10T08:26:16.997Z,8.57
2017-11-10T08:27:16.907Z,8.58
2017-11-10T08:28:16.827Z,8.72
2017-11-10T08:29:16.738Z,8.58
2017-11-10T08:30:16.647Z,8.58
2017-11-10T08:31:16.574Z,8.50
2017-11-10T08:32:16.469Z,8.32
2017-11-10T08:33:16.387Z,8.45
2017-11-10T08:34:16.301Z,8.48
2017-11-10T08:35:16.202Z,8.58
2017-11-10T08:36:16.113Z,8.65
2017-11-10T08:37:16.036Z,8.57
2017-11-10T08:38:15.942Z,8.58
2017-11-10T08:39:15.851Z,8.73
2017-11-10T08:40:15.771Z,8.68
2017-11-10T08:41:15.680Z,8.51
2017-11-10T08:42:15.596Z,8.50
2017-11-10T08:43:15.506Z,8.62
2017-11-10T08:44:15.414Z,8.60
2017-11-10T08:45:15.336Z,8.65
2017-11-10T08:46:15.240Z,8.58
2017-11-10T08:47:15.157Z,8.55
2017-11-10T08:48:15.071Z,8.50
2017-11-10T08:49:14.976Z,8.58
2017-11-10T08:50:14.910Z,8.57
2017-11-10T08:51:14.799Z,8.55
2017-11-10T08:52:14.712Z,8.58
2017-11-10T08:53:14.630Z,8.71
2017-11-10T08:54:14.569Z,8.63
2017-11-10T08:55:14.461Z,8.58
2017-11-10T08:56:14.372Z,8.63
2017-11-10T08:57:14.276Z,8.54
2017-11-10T08:58:14.190Z,8.55
2017-11-10T08:59:14.102Z,8.62
2017-11-10T09:00:14.019Z,8.63
2017-11-10T09:01:13.917Z,8.63
2017-11-10T09:02:13.831Z,8.48
2017-11-10T09:03:13.752Z,8.58
2017-11-10T09:04:13.656Z,8.60
2017-11-10T09:05:13.566Z,8.62
2017-11-10T09:06:13.483Z,8.62
2017-11-10T09:07:13.394Z,8.62
2017-11-10T09:08:13.304Z,8.71
2017-11-10T09:09:13.214Z,8.68
2017-11-10T09:10:13.125Z,8.78
2017-11-10T09:11:13.038Z,8.81
2017-11-10T09:12:12.953Z,8.75
2017-11-10T09:13:12.867Z,8.87
2017-11-10T09:14:12.773Z,8.72
2017-11-10T09:15:12.692Z,8.75
2017-11-10T09:16:12.599Z,8.78
2017-11-10T09:17:12.609Z,8.79
2017-11-10T09:18:12.426Z,8.81
2017-11-10T09:19:12.338Z,8.83
2017-11-10T09:20:12.252Z,8.71
2017-11-10T09:21:12.161Z,8.84
2017-11-10T09:22:12.076Z,8.73
2017-11-10T09:23:11.987Z,8.76
2017-11-10T09:24:11.897Z,8.83
2017-11-10T09:25:11.827Z,8.76
2017-11-10T09:26:11.721Z,8.81
2017-11-10T09:27:11.635Z,8.91
2017-11-10T09:28:11.546Z,8.87
2017-11-10T09:29:11.461Z,8.87
2017-11-10T09:30:11.381Z,8.78
2017-11-10T09:31:11.280Z,8.84
2017-11-10T09:32:11.203Z,8.73
2017-11-10T09:33:11.106Z,8.73
2017-11-10T09:34:11.033Z,8.75
2017-11-10T09:35:10.939Z,8.81
2017-11-10T09:36:10.854Z,8.90
2017-11-10T09:37:10.771Z,8.78
2017-11-10T09:38:10.666Z,8.86
2017-11-10T09:39:10.577Z,8.76
2017-11-10T09:40:10.491Z,8.86
2017-11-10T09:41:10.402Z,8.96
2017-11-10T09:42:10.311Z,8.94
2017-11-10T09:43:10.224Z,8.90
2017-11-10T09:44:10.141Z,8.87
2017-11-10T09:45:10.049Z,8.90
2017-11-10T09:46:09.968Z,8.91
2017-11-10T09:47:09.873Z,8.88
2017-11-10T09:48:09.781Z,8.81
2017-11-10T09:49:09.697Z,8.94
2017-11-10T09:50:09.606Z,8.88
2017-11-10T09:51:09.519Z,8.81
2017-11-10T09:52:09.453Z,8.86
2017-11-10T09:53:09.341Z,8.94
2017-11-10T09:54:09.251Z,8.76
2017-11-10T09:55:09.169Z,8.78
2017-11-10T09:56:09.085Z,8.87
2017-11-10T09:57:08.995Z,8.83
2017-11-10T09:58:08.904Z,8.90
2017-11-10T09:59:08.814Z,8.96
2017-11-10T10:00:08.729Z,8.91
2017-11-10T10:01:08.642Z,8.88
2017-11-10T10:02:08.556Z,8.79
2017-11-10T10:03:08.484Z,8.78
2017-11-10T10:04:08.411Z,8.83
2017-11-10T10:05:08.287Z,8.97
2017-11-10T10:06:08.197Z,8.96
2017-11-10T10:07:08.141Z,8.86
2017-11-10T10:08:08.027Z,8.86
2017-11-10T10:09:07.945Z,8.76
2017-11-10T10:10:07.857Z,8.96
2017-11-10T10:11:07.756Z,8.88
2017-11-10T10:12:07.671Z,8.87
2017-11-10T10:13:07.577Z,8.90
2017-11-10T10:14:07.497Z,8.86
2017-11-10T10:15:07.407Z,8.79
2017-11-10T10:16:07.319Z,8.79
2017-11-10T10:17:07.233Z,8.90
2017-11-10T10:18:07.141Z,8.86
2017-11-10T10:19:07.056Z,8.81
2017-11-10T10:20:06.968Z,8.96
2017-11-10T10:21:06.886Z,8.94
2017-11-10T10:22:06.791Z,8.91
2017-11-10T10:23:06.707Z,8.79
2017-11-10T10:24:06.609Z,8.86
2017-11-10T10:25:06.525Z,8.79
2017-11-10T10:26:06.433Z,8.91
2017-11-10T10:27:06.352Z,8.83
2017-11-10T10:28:06.268Z,8.71
2017-11-10T10:29:06.172Z,8.72
2017-11-10T10:30:06.082Z,8.79
2017-11-10T10:31:05.993Z,8.84
2017-11-10T10:32:05.913Z,8.79
2017-11-10T10:33:05.817Z,8.71
2017-11-10T10:34:05.740Z,8.78
2017-11-10T10:35:05.646Z,8.81
2017-11-10T10:36:05.554Z,8.79
2017-11-10T10:37:05.463Z,8.58
2017-11-10T10:38:05.383Z,8.55
2017-11-10T10:39:05.292Z,8.53
2017-11-10T10:40:05.268Z,8.63
2017-11-10T10:41:05.111Z,8.65
2017-11-10T10:42:05.044Z,8.55
2017-11-10T10:43:04.940Z,8.63
2017-11-10T10:44:04.847Z,8.62
2017-11-10T10:45:04.761Z,8.62
2017-11-10T10:46:04.673Z,8.63
2017-11-10T10:47:04.580Z,8.58
2017-11-10T10:48:04.503Z,8.58
2017-11-10T10:49:04.405Z,8.58
2017-11-10T10:50:04.311Z,8.55
2017-11-10T10:51:04.225Z,8.65
2017-11-10T10:52:04.133Z,8.48
2017-11-10T10:53:04.063Z,8.55
2017-11-10T10:54:03.966Z,8.58
2017-11-10T10:55:03.871Z,8.51
2017-11-10T10:56:03.822Z,8.57
2017-11-10T10:57:03.727Z,8.55
2017-11-10T10:58:03.633Z,8.71
2017-11-10T10:59:03.520Z,8.62
2017-11-10T11:00:03.427Z,8.65
2017-11-10T11:01:03.340Z,8.55
2017-11-10T11:02:03.263Z,8.63
2017-11-10T11:03:03.172Z,8.65
2017-11-10T11:04:03.075Z,8.62
2017-11-10T11:05:02.996Z,8.39
2017-11-10T11:06:02.895Z,8.36
2017-11-10T11:07:02.816Z,8.55
2017-11-10T11:08:02.722Z,8.55
2017-11-10T11:09:02.626Z,8.54
2017-11-10T11:10:02.564Z,8.48
2017-11-10T11:11:02.457Z,8.32
2017-11-10T11:12:02.371Z,8.35
2017-11-10T11:13:02.280Z,8.47
2017-11-10T11:14:02.193Z,8.51
2017-11-10T11:15:02.095Z,8.51
2017-11-10T11:16:02.010Z,8.40
2017-11-10T11:17:01.915Z,8.33
2017-11-10T11:18:01.828Z,8.47
2017-11-10T11:19:01.741Z,8.36
2017-11-10T11:20:01.662Z,8.35
2017-11-10T11:21:01.587Z,8.48
2017-11-10T11:22:01.487Z,8.51
2017-11-10T11:23:01.388Z,8.50
2017-11-10T11:24:01.300Z,8.57
2017-11-10T11:25:01.209Z,8.53
2017-11-10T11:26:01.137Z,8.51
2017-11-10T11:27:01.037Z,8.48
2017-11-10T11:28:00.942Z,8.63
2017-11-10T11:29:00.856Z,8.58
2017-11-10T11:30:00.764Z,8.51
2017-11-10T11:31:00.679Z,8.62
2017-11-10T11:32:00.590Z,8.65
2017-11-10T11:33:00.497Z,8.66
2017-11-10T11:34:00.412Z,8.62
2017-11-10T11:35:00.325Z,8.58
2017-11-10T11:36:00.239Z,8.66
2017-11-10T11:37:00.141Z,8.54
2017-11-10T11:38:00.061Z,8.65
2017-11-10T11:38:59.970Z,8.68
2017-11-10T11:39:59.883Z,8.68
2017-11-10T11:40:59.789Z,8.76
2017-11-10T11:41:59.706Z,8.84
2017-11-10T11:42:59.613Z,8.86
2017-11-10T11:43:59.524Z,8.75
2017-11-10T11:44:59.436Z,8.62
2017-11-10T11:45:59.347Z,8.69
2017-11-10T11:46:59.260Z,8.62
2017-11-10T11:47:59.169Z,8.48
2017-11-10T11:48:59.081Z,8.62
2017-11-10T11:49:58.992Z,8.69
2017-11-10T11:50:58.905Z,8.60
2017-11-10T11:51:58.816Z,8.75
2017-11-10T11:52:58.736Z,8.83
2017-11-10T11:53:58.636Z,8.68
2017-11-10T11:54:58.552Z,8.81
2017-11-10T11:55:58.462Z,8.69
2017-11-10T11:56:58.376Z,8.72
2017-11-10T11:57:58.281Z,8.76
2017-11-10T11:58:58.204Z,8.68
2017-11-10T11:59:58.105Z,8.68
2017-11-10T12:00:58.016Z,8.65
2017-11-10T12:01:57.929Z,8.68
2017-11-10T12:02:57.840Z,8.72
2017-11-10T12:03:57.752Z,8.68
2017-11-10T12:04:57.659Z,8.68
2017-11-10T12:05:57.569Z,8.66
2017-11-10T12:06:57.489Z,8.71
2017-11-10T12:07:57.400Z,8.63
2017-11-10T12:08:57.310Z,8.81
2017-11-10T12:09:57.229Z,8.63
2017-11-10T12:10:57.135Z,8.54
2017-11-10T12:11:57.040Z,8.65
2017-11-10T12:12:56.953Z,8.76
2017-11-10T12:13:56.874Z,8.72
2017-11-10T12:14:56.777Z,8.62
2017-11-10T12:15:56.711Z,8.71
2017-11-10T12:16:56.602Z,8.66
2017-11-10T12:17:56.524Z,8.78
2017-11-10T12:18:56.424Z,8.87
2017-11-10T12:19:56.333Z,8.87
2017-11-10T12:20:56.245Z,8.86
2017-11-10T12:21:56.165Z,8.83
2017-11-10T12:22:56.067Z,8.69
2017-11-10T12:23:55.983Z,8.75
2017-11-10T12:24:55.899Z,8.76
2017-11-10T12:25:55.808Z,8.79
2017-11-10T12:26:55.715Z,8.69
2017-11-10T12:27:55.630Z,8.72
2017-11-10T12:28:55.536Z,8.79
2017-11-10T12:29:55.456Z,8.81
2017-11-10T12:30:55.362Z,8.71
2017-11-10T12:31:55.280Z,8.68
2017-11-10T12:32:55.187Z,8.69
2017-11-10T12:33:55.103Z,8.79
2017-11-10T12:34:55.006Z,8.79
2017-11-10T12:35:54.916Z,8.83
2017-11-10T12:36:54.837Z,8.81
2017-11-10T12:37:54.752Z,8.78
2017-11-10T12:38:54.661Z,8.71
2017-11-10T12:39:54.565Z,8.76
2017-11-10T12:40:54.484Z,8.71
2017-11-10T12:41:54.390Z,8.81
2017-11-10T12:42:54.302Z,8.79
2017-11-10T12:43:54.220Z,8.86
2017-11-10T12:44:54.122Z,8.93
2017-11-10T12:45:54.036Z,8.88
2017-11-10T12:46:53.948Z,8.88
2017-11-10T12:47:53.872Z,8.88
2017-11-10T12:48:53.775Z,8.76
2017-11-10T12:49:53.696Z,8.90
2017-11-10T12:50:53.597Z,8.78
2017-11-10T12:51:53.506Z,8.84
2017-11-10T12:52:53.421Z,8.78
2017-11-10T12:53:53.329Z,8.79
2017-11-10T12:54:53.241Z,8.83
2017-11-10T12:55:53.155Z,8.93
2017-11-10T12:56:53.067Z,8.76
2017-11-10T12:57:52.979Z,8.81
2017-11-10T12:58:52.894Z,8.78
2017-11-10T12:59:52.832Z,8.76
2017-11-10T13:00:52.717Z,8.88
2017-11-10T13:01:52.623Z,8.88
2017-11-10T13:02:52.543Z,8.75
2017-11-10T13:03:52.447Z,8.93
2017-11-10T13:04:52.355Z,8.79
2017-11-10T13:05:52.266Z,8.90
2017-11-10T13:06:52.207Z,8.78
2017-11-10T13:07:52.101Z,8.78
2017-11-10T13:08:52.012Z,8.86
2017-11-10T13:09:51.916Z,8.76
2017-11-10T13:10:51.828Z,8.76
2017-11-10T13:11:51.745Z,8.81
2017-11-10T13:12:51.650Z,8.78
2017-11-10T13:13:51.571Z,8.75
2017-11-10T13:14:51.469Z,8.73
2017-11-10T13:15:51.383Z,8.65
2017-11-10T13:16:51.290Z,8.84